M I D A S
Marine Information and Data Acquisition System
Tripno 1859 of the Zeeleeuw from 2010-04-12 07:55:30 to 2010-04-12 13:48:43
Back to CruiseResearch ActivitiesStationsMapUnderway DataData graphs

EquipmentUnitsComment
TimeDGPSUTC
LatitudeDGPSDM.mWGS84
LongitudeDGPSDM.mWGS84
HeadingGyrodeg 
SOGDGPSknotsSpeed over ground
COGDGPSdegCourse over ground
DepthEcho soundermeters200 kHz
Missing or incorrect values are displayed as -999
Navigation data collected by the RV Zeeleeuw from 2010-04-12 07:55:59 to 2010-04-12 13:50:35
                                                                                    Next 1000 lines
Time Latitude Longitude Heading SOG COG Depth
2010-04-12 07:56:10 51°13.662 2°55.954 110.2 1.2 289 5.9
2010-04-12 07:56:15 51°13.663 2°55.951 110.4 1.5 291 5.9
2010-04-12 07:56:19 51°13.664 2°55.948 110.4 1.8 292 6
2010-04-12 07:56:24 51°13.665 2°55.944 110.4 2.1 292 6.1
2010-04-12 07:56:30 51°13.666 2°55.938 110.3 2.3 290 -999
2010-04-12 07:56:35 51°13.667 2°55.933 109.9 2.5 290 -999
2010-04-12 07:56:40 51°13.669 2°55.927 109.5 2.8 290 -999
2010-04-12 07:56:45 51°13.67 2°55.921 109.1 3 290 -999
2010-04-12 07:56:50 51°13.671 2°55.915 108.6 3.1 289 -999
2010-04-12 07:56:55 51°13.673 2°55.908 107.9 3.2 288 -999
2010-04-12 07:57:00 51°13.674 2°55.901 107.3 3.2 287 -999
2010-04-12 07:57:05 51°13.675 2°55.894 106.3 3.3 286 -999
2010-04-12 07:57:10 51°13.677 2°55.887 105.3 3.4 285 -999
2010-04-12 07:57:15 51°13.678 2°55.88 104.3 3.4 283 -999
2010-04-12 07:57:20 51°13.679 2°55.872 103.7 3.5 283 -999
2010-04-12 07:57:25 51°13.68 2°55.865 103.1 3.6 282 -999
2010-04-12 07:57:30 51°13.681 2°55.857 102.8 3.6 282 -999
2010-04-12 07:57:35 51°13.682 2°55.849 102.6 3.7 280 -999
2010-04-12 07:57:40 51°13.683 2°55.841 102.3 3.7 281 -999
2010-04-12 07:57:45 51°13.683 2°55.832 101.9 3.9 279 -999
2010-04-12 07:57:50 51°13.684 2°55.823 101.7 4.1 280 -999
2010-04-12 07:57:55 51°13.685 2°55.815 101.7 4.1 279 -999
2010-04-12 07:58:00 51°13.686 2°55.806 101.9 3.9 280 -999
2010-04-12 07:58:05 51°13.687 2°55.798 102.4 3.9 280 -999
2010-04-12 07:58:10 51°13.688 2°55.789 103.2 3.8 281 -999
2010-04-12 07:58:15 51°13.688 2°55.782 103.7 3.7 279 -999
2010-04-12 07:58:20 51°13.689 2°55.774 104.1 3.4 280 -999
2010-04-12 07:58:25 51°13.69 2°55.767 104.6 2.9 282 4.4
2010-04-12 07:58:30 51°13.691 2°55.762 105.1 2 276 -999
2010-04-12 07:58:35 51°13.691 2°55.76 105.8 1.1 269 4.4
2010-04-12 07:58:40 51°13.691 2°55.76 103.3 0.1 178 -999
2010-04-12 07:58:45 51°13.69 2°55.761 98.9 0.6 117 -999
2010-04-12 07:58:50 51°13.69 2°55.763 92.5 1 89 -999
2010-04-12 07:58:55 51°13.69 2°55.766 86.9 1.2 92 4.6
2010-04-12 07:58:59 51°13.691 2°55.768 82.4 1.4 75 4.9
2010-04-12 07:59:05 51°13.691 2°55.772 79.2 1.6 81 4.7
2010-04-12 07:59:10 51°13.692 2°55.775 75.2 1.4 68 4.7
2010-04-12 07:59:14 51°13.692 2°55.777 70.3 0.9 79 4.4
2010-04-12 07:59:20 51°13.692 2°55.778 66.9 0.4 97 -999
2010-04-12 07:59:25 51°13.691 2°55.778 64.7 0.4 208 -999
2010-04-12 07:59:30 51°13.691 2°55.776 62.5 1 229 -999
2010-04-12 07:59:35 51°13.689 2°55.774 61.8 1.4 233 -999
2010-04-12 07:59:40 51°13.688 2°55.771 61.9 1.5 236 -999
2010-04-12 07:59:45 51°13.687 2°55.768 62.5 1.5 237 8.5
2010-04-12 07:59:50 51°13.686 2°55.765 63.2 1.5 239 -999
2010-04-12 07:59:55 51°13.685 2°55.763 64 1.4 240 -999
2010-04-12 08:00:00 51°13.684 2°55.76 64.7 0.8 249 -999
2010-04-12 08:00:05 51°13.684 2°55.76 65 0.3 230 4.7
2010-04-12 08:00:10 51°13.685 2°55.761 63.1 0.7 47 -999
2010-04-12 08:00:15 51°13.686 2°55.763 60.7 1 52 -999
2010-04-12 08:00:20 51°13.687 2°55.764 53.6 1.5 40 4.5
2010-04-12 08:00:25 51°13.689 2°55.767 48.9 2 40 -999
2010-04-12 08:00:30 51°13.692 2°55.77 42.3 2.2 29 4.6
2010-04-12 08:00:35 51°13.695 2°55.772 35.3 2.3 28 4.5
2010-04-12 08:00:40 51°13.698 2°55.774 28.8 2.1 18 4.7
2010-04-12 08:00:45 51°13.7 2°55.775 23.8 1.8 17 4.6
2010-04-12 08:00:50 51°13.702 2°55.775 18.8 1 14 -999
2010-04-12 08:00:55 51°13.702 2°55.775 14.5 0.5 10 -999
2010-04-12 08:01:00 51°13.702 2°55.775 9.9 0.3 198 -999
2010-04-12 08:01:05 51°13.701 2°55.775 7.1 0.8 188 -999
2010-04-12 08:01:10 51°13.7 2°55.774 5 1.1 190 4.8
2010-04-12 08:01:15 51°13.698 2°55.774 3.5 1.1 186 4.6
2010-04-12 08:01:20 51°13.697 2°55.774 1.7 1.1 190 -999
2010-04-12 08:01:25 51°13.696 2°55.773 0.1 0.6 207 -999
2010-04-12 08:01:30 51°13.696 2°55.773 357.7 0.4 325 -999
2010-04-12 08:01:35 51°13.697 2°55.771 353 1.1 328 -999
2010-04-12 08:01:40 51°13.699 2°55.77 347.7 1.7 332 -999
2010-04-12 08:01:45 51°13.701 2°55.767 338.1 1.9 324 -999
2010-04-12 08:01:50 51°13.704 2°55.764 332.5 2.2 322 4.5
2010-04-12 08:01:55 51°13.706 2°55.761 328.2 2.6 317 4.8
2010-04-12 08:02:00 51°13.709 2°55.756 324.7 3.2 315 -999
2010-04-12 08:02:05 51°13.713 2°55.75 321.5 3.6 314 -999
2010-04-12 08:02:10 51°13.717 2°55.744 320.3 4.1 315 -999
2010-04-12 08:02:15 51°13.721 2°55.737 321.1 4.4 317 -999
2010-04-12 08:02:20 51°13.726 2°55.73 322.3 4.7 319 -999
2010-04-12 08:02:25 51°13.731 2°55.723 323.8 5 321 -999
2010-04-12 08:02:30 51°13.737 2°55.716 325.3 5.3 322 -999
2010-04-12 08:02:35 51°13.743 2°55.709 326.1 5.5 324 -999
2010-04-12 08:02:40 51°13.75 2°55.701 327.1 5.8 325 -999
2010-04-12 08:02:45 51°13.757 2°55.694 328 6 326 -999
2010-04-12 08:02:50 51°13.764 2°55.686 328.8 6.3 327 -999
2010-04-12 08:02:55 51°13.772 2°55.679 329.5 6.4 328 -999
2010-04-12 08:03:00 51°13.779 2°55.671 330.3 6.6 329 -999
2010-04-12 08:03:05 51°13.788 2°55.664 331 6.7 330 -999
2010-04-12 08:03:10 51°13.796 2°55.657 332.1 7 331 -999
2010-04-12 08:03:15 51°13.805 2°55.649 333 7.1 331 -999
2010-04-12 08:03:20 51°13.813 2°55.642 334.3 7.2 333 -999
2010-04-12 08:03:25 51°13.822 2°55.634 334.7 7.3 332 -999
2010-04-12 08:03:30 51°13.831 2°55.627 335.1 7.3 333 -999
2010-04-12 08:03:35 51°13.84 2°55.619 335.5 7.4 333 -999
2010-04-12 08:03:40 51°13.85 2°55.612 335.9 7.6 334 -999
2010-04-12 08:03:45 51°13.859 2°55.604 336.1 7.7 333 -999
2010-04-12 08:03:50 51°13.869 2°55.597 336.6 7.8 336 -999
2010-04-12 08:03:55 51°13.879 2°55.589 337 8 335 10.5
2010-04-12 08:04:00 51°13.889 2°55.582 337.1 8.1 335 -999
2010-04-12 08:04:05 51°13.899 2°55.574 336.9 8.3 336 -999
2010-04-12 08:04:10 51°13.91 2°55.567 337.7 8.4 336 -999
2010-04-12 08:04:15 51°13.921 2°55.559 338 8.6 336 -999
2010-04-12 08:04:20 51°13.932 2°55.551 337.8 8.7 335 -999
2010-04-12 08:04:25 51°13.943 2°55.543 337.5 8.9 335 -999
2010-04-12 08:04:30 51°13.954 2°55.535 337.6 9 335 -999
2010-04-12 08:04:35 51°13.966 2°55.526 337.2 9 334 -999
2010-04-12 08:04:40 51°13.977 2°55.518 336.8 9.2 335 -999
2010-04-12 08:04:45 51°13.989 2°55.509 336.7 9.3 334 -999
2010-04-12 08:04:50 51°14.001 2°55.5 336.8 9.3 336 -999
2010-04-12 08:04:55 51°14.013 2°55.492 337.2 9.5 336 -999
2010-04-12 08:05:00 51°14.025 2°55.484 338.1 9.6 338 10.9
2010-04-12 08:05:05 51°14.037 2°55.475 339 9.8 337 -999
2010-04-12 08:05:10 51°14.05 2°55.466 339.4 9.8 337 -999
2010-04-12 08:05:15 51°14.062 2°55.458 338.7 9.9 336 -999
2010-04-12 08:05:20 51°14.075 2°55.448 338.5 10 337 -999
2010-04-12 08:05:25 51°14.087 2°55.44 339.1 10 336 -999
2010-04-12 08:05:30 51°14.1 2°55.43 338.8 10.1 336 -999
2010-04-12 08:05:35 51°14.113 2°55.422 338.6 10.2 336 -999
2010-04-12 08:05:40 51°14.126 2°55.412 338.6 10.3 337 -999
2010-04-12 08:05:45 51°14.139 2°55.403 338.6 10.5 336 -999
2010-04-12 08:05:50 51°14.153 2°55.394 338.6 10.6 337 -999
2010-04-12 08:05:55 51°14.166 2°55.385 338.6 10.7 337 -999
2010-04-12 08:06:00 51°14.18 2°55.375 338.4 10.9 337 -999
2010-04-12 08:06:05 51°14.194 2°55.365 338.3 11 336 -999
2010-04-12 08:06:10 51°14.208 2°55.355 337.8 11.1 334 -999
2010-04-12 08:06:15 51°14.221 2°55.344 336.3 11.1 332 10.4
2010-04-12 08:06:19 51°14.232 2°55.334 335.3 11.2 331 11
2010-04-12 08:06:24 51°14.246 2°55.322 334.3 11.2 329 9.9
2010-04-12 08:06:29 51°14.259 2°55.309 332.3 11.3 328 10.5
2010-04-12 08:06:34 51°14.272 2°55.295 331.1 11.6 327 10
2010-04-12 08:06:39 51°14.286 2°55.28 329.5 11.9 326 10
2010-04-12 08:06:44 51°14.3 2°55.265 328.7 12.2 326 -999
2010-04-12 08:06:49 51°14.314 2°55.25 328.5 12.4 325 10.8
2010-04-12 08:06:55 51°14.331 2°55.23 327.5 12.6 324 -999
2010-04-12 08:07:00 51°14.345 2°55.213 326.1 12.7 323 -999
2010-04-12 08:07:05 51°14.36 2°55.197 325.7 12.8 326 10
2010-04-12 08:07:10 51°14.374 2°55.181 326.7 12.8 324 -999
2010-04-12 08:07:15 51°14.389 2°55.164 326.7 12.9 325 10
2010-04-12 08:07:19 51°14.401 2°55.151 326.5 13 325 10
2010-04-12 08:07:25 51°14.418 2°55.131 326.7 13.1 325 10.3
2010-04-12 08:07:30 51°14.434 2°55.115 326.9 13.2 325 10
2010-04-12 08:07:34 51°14.446 2°55.101 327.4 13.2 325 10.5
2010-04-12 08:07:39 51°14.46 2°55.085 327.4 13.1 325 -999
2010-04-12 08:07:45 51°14.478 2°55.065 327.5 13.2 324 -999
2010-04-12 08:07:50 51°14.493 2°55.047 327.1 13.3 323 11.9
2010-04-12 08:07:55 51°14.508 2°55.029 326.2 13.4 321 10.3
2010-04-12 08:07:59 51°14.519 2°55.013 325.2 13.3 319 10.5
2010-04-12 08:08:04 51°14.532 2°54.993 324.6 13.4 316 11
2010-04-12 08:08:09 51°14.546 2°54.973 323.7 13.4 319 11.5
2010-04-12 08:08:14 51°14.56 2°54.954 324.3 13.4 319 11.7
2010-04-12 08:08:19 51°14.574 2°54.934 325.6 13.4 319 11.5
2010-04-12 08:08:24 51°14.588 2°54.915 326.4 13.3 320 11.4
2010-04-12 08:08:29 51°14.602 2°54.896 326.7 13.3 319 11.6
2010-04-12 08:08:34 51°14.616 2°54.877 327.2 13.3 320 11.5
2010-04-12 08:08:39 51°14.63 2°54.858 327 13.2 319 11.7
2010-04-12 08:08:43 51°14.641 2°54.843 327 13.2 319 11.6
2010-04-12 08:08:48 51°14.655 2°54.823 326 13.3 318 11.7
2010-04-12 08:08:53 51°14.669 2°54.804 325.2 13.2 320 11.9
2010-04-12 08:08:58 51°14.683 2°54.786 325.4 13.3 321 11.9
2010-04-12 08:09:03 51°14.697 2°54.768 326.2 13.1 322 11.6
2010-04-12 08:09:07 51°14.709 2°54.753 327.3 13.1 320 10
2010-04-12 08:09:12 51°14.723 2°54.735 327.4 13 322 9.5
2010-04-12 08:09:17 51°14.737 2°54.718 328.1 12.8 324 9.5
2010-04-12 08:09:22 51°14.752 2°54.702 329.9 12.8 326 9.5
2010-04-12 08:09:27 51°14.767 2°54.687 331.6 12.8 327 9.6
2010-04-12 08:09:31 51°14.779 2°54.674 332.5 12.9 325 9.8
2010-04-12 08:09:36 51°14.794 2°54.658 331.8 13 327 9.5
2010-04-12 08:09:41 51°14.809 2°54.642 331.9 13.1 326 9.8
2010-04-12 08:09:47 51°14.827 2°54.623 332.1 13.1 327 10
2010-04-12 08:09:51 51°14.839 2°54.611 332.5 13.1 328 11.5
2010-04-12 08:09:56 51°14.854 2°54.595 333.1 13.3 325 11.7
2010-04-12 08:10:02 51°14.872 2°54.574 331.2 13.4 323 11.5
2010-04-12 08:10:07 51°14.886 2°54.555 328.9 13.3 320 11.7
2010-04-12 08:10:11 51°14.898 2°54.54 326.7 13.3 320 11.2
2010-04-12 08:10:16 51°14.912 2°54.521 325.2 13.3 319 11.7
2010-04-12 08:10:22 51°14.928 2°54.497 324.8 13.2 318 11.8
2010-04-12 08:10:26 51°14.939 2°54.482 324.1 13.1 319 11.5
2010-04-12 08:10:31 51°14.953 2°54.463 324.2 13.1 319 11.6
2010-04-12 08:10:36 51°14.967 2°54.444 324.4 13.2 319 11.2
2010-04-12 08:10:42 51°14.983 2°54.421 325.1 13.1 320 9.7
2010-04-12 08:10:46 51°14.994 2°54.407 326.3 12.8 320 9.4
2010-04-12 08:10:51 51°15.008 2°54.389 327.2 12.7 322 9.6
2010-04-12 08:10:56 51°15.022 2°54.372 328.6 12.7 321 9.6
2010-04-12 08:11:02 51°15.039 2°54.351 328.9 12.8 322 9.6
2010-04-12 08:11:06 51°15.05 2°54.336 329.6 12.9 321 9.8
2010-04-12 08:11:11 51°15.064 2°54.319 330 12.8 324 9.5
2010-04-12 08:11:16 51°15.079 2°54.303 330.6 12.9 324 10
2010-04-12 08:11:22 51°15.096 2°54.282 330.2 12.9 323 9.7
2010-04-12 08:11:26 51°15.108 2°54.269 329.8 12.9 323 9.6
2010-04-12 08:11:31 51°15.122 2°54.251 329.3 13 322 10
2010-04-12 08:11:36 51°15.136 2°54.234 328.7 12.9 323 9.8
2010-04-12 08:11:42 51°15.153 2°54.213 328.5 12.9 322 9.7
2010-04-12 08:11:47 51°15.167 2°54.195 328.2 12.9 323 9.8
2010-04-12 08:11:51 51°15.179 2°54.181 328.1 13 322 10.1
2010-04-12 08:11:56 51°15.193 2°54.163 327.8 12.9 322 9.9
2010-04-12 08:12:01 51°15.207 2°54.145 327.5 13 321 10.1
2010-04-12 08:12:06 51°15.221 2°54.127 327.2 13.1 322 10.1
2010-04-12 08:12:11 51°15.235 2°54.11 327.6 13 321 9.9
2010-04-12 08:12:16 51°15.249 2°54.091 327.4 13 321 10.1
2010-04-12 08:12:22 51°15.266 2°54.07 327.1 13 322 10.1
2010-04-12 08:12:26 51°15.277 2°54.056 327.3 12.9 322 10.3
2010-04-12 08:12:31 51°15.291 2°54.038 327.5 13 321 10.4
2010-04-12 08:12:36 51°15.306 2°54.02 327 13 322 10.3
2010-04-12 08:12:42 51°15.322 2°53.998 327 13 320 10.2
2010-04-12 08:12:46 51°15.334 2°53.983 326.9 13 320 10.3
2010-04-12 08:12:51 51°15.348 2°53.965 326.9 13 320 10.5
2010-04-12 08:12:56 51°15.362 2°53.947 326.9 12.9 322 10.3
2010-04-12 08:13:02 51°15.378 2°53.926 327.8 13 322 10.7
2010-04-12 08:13:06 51°15.39 2°53.911 328.2 12.9 321 10.2
2010-04-12 08:13:11 51°15.404 2°53.894 328.3 12.9 321 10.4
2010-04-12 08:13:17 51°15.42 2°53.871 328.6 13 320 10.7
2010-04-12 08:13:22 51°15.434 2°53.853 328.5 12.9 320 10.5
2010-04-12 08:13:26 51°15.445 2°53.838 328.4 13 319 10.6
2010-04-12 08:13:31 51°15.459 2°53.82 328.4 13 321 10.7
2010-04-12 08:13:36 51°15.473 2°53.801 328.8 13 320 10.6
2010-04-12 08:13:42 51°15.49 2°53.78 329.4 13 322 10.8
2010-04-12 08:13:46 51°15.501 2°53.766 329.6 13 321 10.7
2010-04-12 08:13:51 51°15.516 2°53.748 329.7 12.8 322 10.3
2010-04-12 08:13:56 51°15.529 2°53.731 329.6 12.9 322 10.9
2010-04-12 08:14:02 51°15.546 2°53.709 329.6 13 322 10.5
2010-04-12 08:14:06 51°15.558 2°53.696 329.9 12.9 323 10.5
2010-04-12 08:14:11 51°15.572 2°53.679 330.6 12.9 324 11
2010-04-12 08:14:15 51°15.584 2°53.666 331.4 12.9 324 11.2
2010-04-12 08:14:22 51°15.604 2°53.642 331.8 12.7 324 10.8
2010-04-12 08:14:26 51°15.616 2°53.63 331.7 12.8 326 11.2
2010-04-12 08:14:31 51°15.631 2°53.614 332.6 12.7 326 10.6
2010-04-12 08:14:36 51°15.645 2°53.599 333.6 12.8 327 11.6
2010-04-12 08:14:42 51°15.663 2°53.58 333.4 12.7 326 10.9
2010-04-12 08:14:46 51°15.675 2°53.568 333.5 12.7 328 11.1
2010-04-12 08:14:51 51°15.69 2°53.553 334 12.7 328 11.4
2010-04-12 08:14:56 51°15.705 2°53.539 334.4 12.7 330 11.3
2010-04-12 08:15:02 51°15.723 2°53.521 335.1 12.8 329 11.5
2010-04-12 08:15:06 51°15.735 2°53.51 334.7 12.7 330 11.1
2010-04-12 08:15:11 51°15.75 2°53.496 334.8 12.7 328 11.6
2010-04-12 08:15:17 51°15.768 2°53.478 335.1 12.6 330 11.4
2010-04-12 08:15:22 51°15.783 2°53.464 335.4 12.6 330 11.4
2010-04-12 08:15:26 51°15.796 2°53.453 335.8 12.6 330 12
2010-04-12 08:15:31 51°15.811 2°53.439 336.4 12.7 330 11.8
2010-04-12 08:15:36 51°15.826 2°53.426 336.9 12.7 332 11.7
2010-04-12 08:15:42 51°15.845 2°53.41 337.5 12.7 332 11.6
2010-04-12 08:15:46 51°15.857 2°53.399 338 12.6 331 11.4
2010-04-12 08:15:51 51°15.872 2°53.385 337.8 12.7 330 11.9
2010-04-12 08:15:56 51°15.888 2°53.371 337.3 12.7 331 11.7
2010-04-12 08:16:02 51°15.906 2°53.355 337.5 12.7 331 11.8
2010-04-12 08:16:06 51°15.919 2°53.344 337.8 12.8 332 11.9
2010-04-12 08:16:11 51°15.934 2°53.331 338.1 12.6 331 11.7
2010-04-12 08:16:15 51°15.946 2°53.32 337.9 12.6 332 11.8
2010-04-12 08:16:22 51°15.968 2°53.301 337.9 12.6 331 11.7
2010-04-12 08:16:26 51°15.98 2°53.29 338 12.7 332 11.8
2010-04-12 08:16:31 51°15.996 2°53.277 338.2 12.6 331 11.5
2010-04-12 08:16:36 51°16.011 2°53.264 338.1 12.7 332 12.3
2010-04-12 08:16:42 51°16.03 2°53.249 338.3 12.6 332 11.7
2010-04-12 08:16:46 51°16.042 2°53.238 338.2 12.6 332 11.8
2010-04-12 08:16:51 51°16.058 2°53.226 338.2 12.6 332 11.7
2010-04-12 08:16:56 51°16.073 2°53.213 338.2 12.6 334 11.9
2010-04-12 08:17:02 51°16.092 2°53.198 338.7 12.6 333 11.7
2010-04-12 08:17:06 51°16.104 2°53.187 338.6 12.7 332 11.9
2010-04-12 08:17:11 51°16.12 2°53.175 338.3 12.7 332 12.2
2010-04-12 08:17:16 51°16.135 2°53.161 337.7 12.7 332 12
2010-04-12 08:17:22 51°16.154 2°53.146 338 12.7 334 11.8
2010-04-12 08:17:26 51°16.167 2°53.136 337.7 12.7 333 12
2010-04-12 08:17:31 51°16.182 2°53.123 337.8 12.7 334 12
2010-04-12 08:17:36 51°16.198 2°53.111 338.2 12.7 333 12.2
2010-04-12 08:17:41 51°16.215 2°53.1 339.7 12.5 337 11.8
2010-04-12 08:17:46 51°16.23 2°53.088 340.3 12.7 335 12.3
2010-04-12 08:17:51 51°16.247 2°53.079 341.3 12.5 340 11.8
2010-04-12 08:17:56 51°16.263 2°53.068 342.4 12.6 338 12.2
2010-04-12 08:18:02 51°16.282 2°53.056 342.8 12.4 339 11.8
2010-04-12 08:18:06 51°16.295 2°53.048 343.7 12.5 339 12.1
2010-04-12 08:18:11 51°16.312 2°53.041 345.5 12.4 345 12.2
2010-04-12 08:18:16 51°16.328 2°53.033 346.6 12.5 342 12.2
2010-04-12 08:18:22 51°16.348 2°53.024 347.2 12.5 345 12
2010-04-12 08:18:26 51°16.362 2°53.018 348.4 12.5 344 12.2
2010-04-12 08:18:31 51°16.378 2°53.011 348.6 12.5 346 11.9
2010-04-12 08:18:36 51°16.395 2°53.004 349.4 12.5 345 12
2010-04-12 08:18:42 51°16.415 2°52.996 349.8 12.5 346 11.9
2010-04-12 08:18:46 51°16.429 2°52.991 349.9 12.4 347 11.9
2010-04-12 08:18:51 51°16.445 2°52.984 349.9 12.4 345 11.9
2010-04-12 08:18:56 51°16.462 2°52.977 349.4 12.4 344 12.4
2010-04-12 08:19:02 51°16.482 2°52.968 349.2 12.4 345 11.8
2010-04-12 08:19:06 51°16.495 2°52.962 348.1 12.5 344 12
2010-04-12 08:19:11 51°16.512 2°52.955 348.5 12.4 345 11.3
2010-04-12 08:19:17 51°16.532 2°52.946 348.4 12.4 344 11.9
2010-04-12 08:19:22 51°16.548 2°52.939 348.1 12.6 345 12
2010-04-12 08:19:26 51°16.562 2°52.933 348 12.5 344 11.8
2010-04-12 08:19:31 51°16.579 2°52.926 347.9 12.5 344 11.9
2010-04-12 08:19:36 51°16.595 2°52.918 348 12.5 344 11.7
2010-04-12 08:19:42 51°16.615 2°52.909 347.7 12.5 345 11.6
2010-04-12 08:19:46 51°16.629 2°52.904 348.3 12.5 345 11.3
2010-04-12 08:19:51 51°16.646 2°52.897 348.8 12.5 344 11.6
2010-04-12 08:19:56 51°16.662 2°52.889 348 12.5 344 11.5
2010-04-12 08:20:02 51°16.683 2°52.88 347.5 12.4 343 10.9
2010-04-12 08:20:06 51°16.696 2°52.874 347 12.5 343 11.1
2010-04-12 08:20:11 51°16.712 2°52.866 346.9 12.5 343 10.9
2010-04-12 08:20:15 51°16.725 2°52.859 346.5 12.4 344 10.4
2010-04-12 08:20:22 51°16.749 2°52.848 346.7 12.5 343 10.4
2010-04-12 08:20:26 51°16.762 2°52.842 346.7 12.4 342 10
2010-04-12 08:20:31 51°16.778 2°52.834 346.4 12.4 343 10
2010-04-12 08:20:36 51°16.794 2°52.826 346.6 12.3 343 9.4
2010-04-12 08:20:42 51°16.814 2°52.817 347.1 12.3 343 9.2
2010-04-12 08:20:46 51°16.827 2°52.81 346.7 12.3 343 9.2
2010-04-12 08:20:51 51°16.844 2°52.803 346.9 12.3 343 9.5
2010-04-12 08:20:56 51°16.86 2°52.794 346.7 12.3 343 9.3
2010-04-12 08:21:02 51°16.88 2°52.785 346.4 12.4 344 9.1
2010-04-12 08:21:07 51°16.896 2°52.777 346.8 12.3 342 9.1
2010-04-12 08:21:11 51°16.909 2°52.771 346.3 12.3 343 9.1
2010-04-12 08:21:17 51°16.928 2°52.761 346.3 12.3 342 9.1
2010-04-12 08:21:22 51°16.945 2°52.753 346.3 12.4 342 9.6
2010-04-12 08:21:26 51°16.958 2°52.746 345.9 12.4 343 9.6
2010-04-12 08:21:31 51°16.974 2°52.738 346.3 12.4 343 9.5
2010-04-12 08:21:36 51°16.991 2°52.73 345.7 12.5 342 9.7
2010-04-12 08:21:42 51°17.011 2°52.72 346.5 12.5 343 9.9
2010-04-12 08:21:46 51°17.024 2°52.714 346.6 12.4 343 9.8
2010-04-12 08:21:51 51°17.04 2°52.706 346.6 12.4 343 10.4
2010-04-12 08:21:56 51°17.057 2°52.697 346.4 12.4 343 9.7
2010-04-12 08:22:02 51°17.076 2°52.687 346.6 12.4 342 9.7
2010-04-12 08:22:06 51°17.089 2°52.682 346.6 12.4 344 9.5
2010-04-12 08:22:11 51°17.106 2°52.673 346.3 12.3 341 9.5
2010-04-12 08:22:17 51°17.125 2°52.663 346.4 12.3 342 9.9
2010-04-12 08:22:21 51°17.138 2°52.656 346.2 12.3 343 9.7
2010-04-12 08:22:26 51°17.155 2°52.649 346.7 12.3 343 9.3
2010-04-12 08:22:31 51°17.171 2°52.64 346.6 12.4 343 9.7
2010-04-12 08:22:36 51°17.187 2°52.632 346.5 12.4 342 9.9
2010-04-12 08:22:42 51°17.207 2°52.622 346.1 12.4 342 10.1
2010-04-12 08:22:47 51°17.223 2°52.614 346.4 12.4 342 9.9
2010-04-12 08:22:51 51°17.237 2°52.607 346.3 12.1 342 9.2
2010-04-12 08:22:56 51°17.252 2°52.599 346.2 12.2 342 10.5
2010-04-12 08:23:02 51°17.272 2°52.59 346.3 12.3 343 9.7
2010-04-12 08:23:06 51°17.285 2°52.583 346.7 12.4 343 9.8
2010-04-12 08:23:11 51°17.302 2°52.576 347 12.3 344 9.8
2010-04-12 08:23:16 51°17.318 2°52.568 346.6 12.4 343 9.7
2010-04-12 08:23:22 51°17.338 2°52.56 348 12.2 347 9.8
2010-04-12 08:23:26 51°17.351 2°52.555 349.5 12.3 347 9.9
2010-04-12 08:23:31 51°17.368 2°52.551 351.7 12.3 352 10.4
2010-04-12 08:23:36 51°17.385 2°52.547 353.4 12.2 352 10
2010-04-12 08:23:42 51°17.405 2°52.543 355 12.2 354 10.3
2010-04-12 08:23:46 51°17.419 2°52.541 355.8 12.3 354 10.2
2010-04-12 08:23:51 51°17.436 2°52.538 357.2 12.3 355 10.2
2010-04-12 08:23:56 51°17.453 2°52.536 358 12.3 356 10.5
2010-04-12 08:24:02 51°17.473 2°52.534 358.6 12.3 356 10.3
2010-04-12 08:24:06 51°17.487 2°52.533 359.7 12.2 356 10.4
2010-04-12 08:24:11 51°17.504 2°52.532 359.7 12.3 358 10.4
2010-04-12 08:24:17 51°17.524 2°52.53 0.1 12.3 358 10.4
2010-04-12 08:24:22 51°17.541 2°52.529 0.4 12.3 358 10.3
2010-04-12 08:24:26 51°17.555 2°52.529 0.8 12.3 357 10.4
2010-04-12 08:24:31 51°17.572 2°52.528 0.4 12.4 358 10.5
2010-04-12 08:24:36 51°17.589 2°52.526 0.7 12.3 357 10.2
2010-04-12 08:24:42 51°17.609 2°52.525 0.4 12.4 358 10.4
2010-04-12 08:24:46 51°17.623 2°52.524 0.5 12.4 358 10.1
2010-04-12 08:24:51 51°17.64 2°52.523 0.8 12.3 358 10.2
2010-04-12 08:24:56 51°17.657 2°52.522 0.8 12.3 359 10.5
2010-04-12 08:25:02 51°17.678 2°52.521 0.8 12.4 358 10.6
2010-04-12 08:25:06 51°17.691 2°52.521 1.4 12.3 1 10.2
2010-04-12 08:25:11 51°17.709 2°52.522 2.9 12.2 1 9.9
2010-04-12 08:25:16 51°17.726 2°52.522 3.2 12.3 2 10.5
2010-04-12 08:25:22 51°17.746 2°52.524 4.4 12.2 2 10.2
2010-04-12 08:25:27 51°17.763 2°52.525 4.4 12.3 3 10.4
2010-04-12 08:25:31 51°17.777 2°52.526 4.7 12.2 3 10
2010-04-12 08:25:36 51°17.793 2°52.529 6.4 12.3 6 10.2
2010-04-12 08:25:41 51°17.811 2°52.531 7 12.2 4 10.5
2010-04-12 08:25:47 51°17.831 2°52.535 7.9 12.1 8 10.3
2010-04-12 08:25:51 51°17.844 2°52.537 9.1 12.3 6 10.7
2010-04-12 08:25:56 51°17.861 2°52.541 9.1 12.3 9 10.4
2010-04-12 08:26:02 51°17.881 2°52.545 9.8 12.3 7 10.2
2010-04-12 08:26:06 51°17.895 2°52.548 10.1 12.2 8 10
2010-04-12 08:26:11 51°17.911 2°52.552 10.3 12.2 8 10.9
2010-04-12 08:26:16 51°17.928 2°52.556 10.3 12.1 9 10.5
2010-04-12 08:26:22 51°17.948 2°52.561 10.9 12.3 8 10.9
2010-04-12 08:26:26 51°17.962 2°52.564 10.7 12.1 8 10.2
2010-04-12 08:26:31 51°17.978 2°52.567 10.4 12.1 8 10.5
2010-04-12 08:26:36 51°17.995 2°52.572 10.4 12.1 10 10.4
2010-04-12 08:26:42 51°18.015 2°52.579 11 12.1 14 10.8
2010-04-12 08:26:46 51°18.027 2°52.587 16.8 12 21 10.8
2010-04-12 08:26:51 51°18.042 2°52.599 22.1 11.9 28 10.3
2010-04-12 08:26:56 51°18.057 2°52.61 26 12 25 10.9
2010-04-12 08:27:01 51°18.071 2°52.624 28.5 11.9 33 10.6
2010-04-12 08:27:06 51°18.085 2°52.638 30.3 12 29 10.8
2010-04-12 08:27:11 51°18.099 2°52.653 32 12.1 37 11.2
2010-04-12 08:27:15 51°18.11 2°52.665 34.5 12 36 10.6
2010-04-12 08:27:22 51°18.127 2°52.69 37.1 12.1 43 10.8
2010-04-12 08:27:26 51°18.138 2°52.704 39.7 12.1 41 10.6
2010-04-12 08:27:31 51°18.149 2°52.724 43.1 12.2 50 10.8
2010-04-12 08:27:36 51°18.159 2°52.745 46.4 12.1 49 10.9
2010-04-12 08:27:42 51°18.172 2°52.77 47.5 12.1 53 11
2010-04-12 08:27:46 51°18.178 2°52.789 51.9 12.2 58 10.6
2010-04-12 08:27:51 51°18.188 2°52.811 55 12.2 58 10.6
2010-04-12 08:27:56 51°18.195 2°52.836 57.1 12.2 64 10.9
2010-04-12 08:28:01 51°18.203 2°52.859 59.4 12.3 62 10.8
2010-04-12 08:28:07 51°18.212 2°52.889 61.3 12.3 66 10.9
2010-04-12 08:28:11 51°18.217 2°52.909 62.4 12.3 66 10.6
2010-04-12 08:28:17 51°18.225 2°52.939 64 12.2 68 10.6
2010-04-12 08:28:22 51°18.231 2°52.965 64.7 12.4 69 11.2
2010-04-12 08:28:26 51°18.236 2°52.986 65.7 12.3 68 10.9
2010-04-12 08:28:31 51°18.242 2°53.011 66.2 12.4 69 10.7
2010-04-12 08:28:36 51°18.247 2°53.037 66.8 12.5 71 11.1
2010-04-12 08:28:42 51°18.256 2°53.067 66.5 12.3 66 10.8
2010-04-12 08:28:46 51°18.26 2°53.088 66.1 12.5 71 11
2010-04-12 08:28:51 51°18.267 2°53.113 64.9 12.3 65 11
2010-04-12 08:28:57 51°18.274 2°53.143 65.1 12.4 69 10.6
2010-04-12 08:29:02 51°18.282 2°53.168 64.4 12.4 64 10.7
2010-04-12 08:29:06 51°18.287 2°53.189 64.3 12.4 69 10.8
2010-04-12 08:29:11 51°18.294 2°53.213 64 12.3 65 10.9
2010-04-12 08:29:15 51°18.299 2°53.234 64.3 12.5 69 11
2010-04-12 08:29:22 51°18.309 2°53.269 63.7 12.4 64 11.3
2010-04-12 08:29:26 51°18.314 2°53.289 63.2 12.5 69 11.1
2010-04-12 08:29:31 51°18.321 2°53.314 63.3 12.3 64 10.8
2010-04-12 08:29:36 51°18.328 2°53.339 62.9 12.4 68 11.1
2010-04-12 08:29:42 51°18.336 2°53.369 63.6 12.4 64 10.9
2010-04-12 08:29:46 51°18.342 2°53.389 63 12.5 68 11.2
2010-04-12 08:29:51 51°18.349 2°53.415 64 12.4 64 11.2
2010-04-12 08:29:56 51°18.356 2°53.44 62.9 12.4 67 11
2010-04-12 08:30:02 51°18.364 2°53.469 63.2 12.2 66 10.8
2010-04-12 08:30:07 51°18.371 2°53.494 63.6 12.4 66 11
2010-04-12 08:30:11 51°18.377 2°53.514 63.7 12.4 65 11
2010-04-12 08:30:16 51°18.384 2°53.539 62.6 12.4 65 11
2010-04-12 08:30:21 51°18.391 2°53.564 63.7 12.3 66 10.8
2010-04-12 08:30:26 51°18.398 2°53.589 63.3 12.4 67 11.2
2010-04-12 08:30:31 51°18.405 2°53.615 64.2 12.4 67 11.3
2010-04-12 08:30:36 51°18.412 2°53.64 64 12.4 66 11.2
2010-04-12 08:30:41 51°18.419 2°53.665 63.6 12.3 66 10.9
2010-04-12 08:30:46 51°18.425 2°53.69 63.6 12.5 67 11
2010-04-12 08:30:51 51°18.432 2°53.715 63.8 12.5 65 11.6
2010-04-12 08:30:56 51°18.439 2°53.741 63.4 12.4 68 10.9
2010-04-12 08:31:02 51°18.447 2°53.77 63.7 12.2 67 10.6
2010-04-12 08:31:06 51°18.452 2°53.79 63.7 12.3 66 11.2
2010-04-12 08:31:11 51°18.459 2°53.815 63.8 12.4 65 11.1
2010-04-12 08:31:16 51°18.466 2°53.841 63.7 12.5 66 11.2
2010-04-12 08:31:22 51°18.475 2°53.87 62.9 12.3 65 11.1
2010-04-12 08:31:26 51°18.48 2°53.891 63.4 12.5 67 10.9
2010-04-12 08:31:31 51°18.488 2°53.916 63.8 12.5 65 11
2010-04-12 08:31:36 51°18.495 2°53.941 63.3 12.5 66 11
2010-04-12 08:31:42 51°18.503 2°53.971 64 12.5 66 10.8
2010-04-12 08:31:46 51°18.51 2°53.991 63.2 12.4 65 11.2
2010-04-12 08:31:51 51°18.516 2°54.017 64.5 12.5 66 11
2010-04-12 08:31:56 51°18.524 2°54.041 63.1 12.4 64 10.9
2010-04-12 08:32:01 51°18.529 2°54.067 63.8 12.4 68 10.8
2010-04-12 08:32:06 51°18.537 2°54.091 63.9 12.2 65 10.6
2010-04-12 08:32:11 51°18.543 2°54.117 64 12.5 67 11.6
2010-04-12 08:32:17 51°18.552 2°54.147 63.6 12.3 66 11.2
2010-04-12 08:32:22 51°18.558 2°54.172 63.5 12.3 68 11.3
2010-04-12 08:32:26 51°18.564 2°54.192 63.7 12.2 66 10.8
2010-04-12 08:32:31 51°18.571 2°54.217 64.1 12.3 67 11
2010-04-12 08:32:36 51°18.578 2°54.242 64 12.3 66 10.8
2010-04-12 08:32:42 51°18.586 2°54.272 64 12.3 66 11.1
2010-04-12 08:32:46 51°18.591 2°54.292 64 12.4 68 10.9
2010-04-12 08:32:51 51°18.598 2°54.317 64.5 12.3 66 10.7
2010-04-12 08:32:56 51°18.604 2°54.342 64.2 12.2 67 10.6
2010-04-12 08:33:01 51°18.611 2°54.367 64 12.3 66 10.9
2010-04-12 08:33:06 51°18.618 2°54.392 64.4 12.4 66 10.8
2010-04-12 08:33:11 51°18.625 2°54.418 64.1 12.4 68 11.1
2010-04-12 08:33:17 51°18.633 2°54.448 64.4 12.4 66 11.3
2010-04-12 08:33:22 51°18.64 2°54.473 64.1 12.5 67 11.1
2010-04-12 08:33:26 51°18.645 2°54.493 64.2 12.4 66 10.8
2010-04-12 08:33:31 51°18.652 2°54.519 64 12.4 67 11.1
2010-04-12 08:33:36 51°18.659 2°54.544 63.9 12.4 66 10.7
2010-04-12 08:33:42 51°18.666 2°54.574 64.2 12.4 67 11.2
2010-04-12 08:33:46 51°18.672 2°54.594 64 12.4 67 10.8
2010-04-12 08:33:51 51°18.678 2°54.62 64.5 12.5 68 11.4
2010-04-12 08:33:56 51°18.686 2°54.644 64 12.4 66 11
2010-04-12 08:34:02 51°18.693 2°54.675 64.3 12.3 66 10.9
2010-04-12 08:34:06 51°18.7 2°54.694 63.4 12.4 66 11.2
2010-04-12 08:34:11 51°18.706 2°54.72 64.5 12.4 67 11.1
2010-04-12 08:34:15 51°18.712 2°54.74 63.4 12.5 65 11.1
2010-04-12 08:34:22 51°18.721 2°54.776 64.2 12.5 68 11.2
2010-04-12 08:34:26 51°18.728 2°54.795 63.6 12.5 63 11.2
2010-04-12 08:34:31 51°18.734 2°54.822 64 12.5 69 11.1
2010-04-12 08:34:36 51°18.742 2°54.846 63.2 12.4 66 10.9
2010-04-12 08:34:42 51°18.75 2°54.876 64.8 12.4 66 11
2010-04-12 08:34:46 51°18.756 2°54.896 63.9 12.2 67 10.5
2010-04-12 08:34:51 51°18.762 2°54.921 64.7 12.4 67 11.2
2010-04-12 08:34:56 51°18.769 2°54.946 64.2 12.4 65 11
2010-04-12 08:35:02 51°18.777 2°54.977 64 12.4 69 11.3
2010-04-12 08:35:06 51°18.783 2°54.997 64.1 12.4 67 11.1
2010-04-12 08:35:11 51°18.789 2°55.022 64.6 12.3 66 11
2010-04-12 08:35:17 51°18.798 2°55.052 64.1 12.4 67 10.6
2010-04-12 08:35:22 51°18.804 2°55.078 64.6 12.5 66 11
2010-04-12 08:35:26 51°18.81 2°55.098 64.1 12.3 67 10.9
2010-04-12 08:35:31 51°18.816 2°55.123 64.8 12.3 67 10.7
2010-04-12 08:35:36 51°18.823 2°55.148 64.4 12.4 65 11.1
2010-04-12 08:35:42 51°18.832 2°55.178 63.6 12.4 67 10.8
2010-04-12 08:35:46 51°18.837 2°55.198 64.6 12.4 66 10.9
2010-04-12 08:35:51 51°18.844 2°55.224 64.4 12.4 66 10.9
2010-04-12 08:35:56 51°18.85 2°55.249 64.4 12.4 68 11.1
2010-04-12 08:36:02 51°18.858 2°55.279 64.4 12.5 67 11.6
2010-04-12 08:36:06 51°18.864 2°55.299 64.3 12.2 67 10.8
2010-04-12 08:36:11 51°18.871 2°55.324 64.1 12.3 68 11.5
2010-04-12 08:36:16 51°18.877 2°55.349 64.6 12.3 66 11
2010-04-12 08:36:21 51°18.884 2°55.374 64 12.4 66 10.9
2010-04-12 08:36:26 51°18.891 2°55.399 64 12.4 67 11.3
2010-04-12 08:36:31 51°18.899 2°55.424 64.5 12.4 65 11
2010-04-12 08:36:35 51°18.904 2°55.444 64 12.4 67 11.2
2010-04-12 08:36:42 51°18.914 2°55.479 63.8 12.4 66 11.1
2010-04-12 08:36:46 51°18.919 2°55.499 64.4 12.4 67 10.9
2010-04-12 08:36:51 51°18.927 2°55.524 64.1 12.4 64 11
2010-04-12 08:36:56 51°18.934 2°55.549 63.9 12.5 66 11
2010-04-12 08:37:02 51°18.942 2°55.579 64 12.5 65 10.7
2010-04-12 08:37:06 51°18.948 2°55.6 64.2 12.4 66 10.3
2010-04-12 08:37:11 51°18.954 2°55.625 64.2 12.4 67 10.9
2010-04-12 08:37:16 51°18.961 2°55.65 64.5 12.5 65 10.9
2010-04-12 08:37:22 51°18.97 2°55.68 64 12.5 68 10.7
2010-04-12 08:37:26 51°18.976 2°55.7 64.4 12.5 63 10.6
2010-04-12 08:37:31 51°18.983 2°55.726 64.4 12.6 67 10.8
2010-04-12 08:37:37 51°18.991 2°55.756 64.3 12.5 65 11
2010-04-12 08:37:42 51°18.998 2°55.782 64 12.5 66 10.9
2010-04-12 08:37:46 51°19.004 2°55.801 63.8 12.3 65 10.4
2010-04-12 08:37:51 51°19.01 2°55.827 64.7 12.5 68 11
2010-04-12 08:37:56 51°19.018 2°55.851 63.9 12.5 65 11
2010-04-12 08:38:02 51°19.026 2°55.882 64.6 12.5 67 11
2010-04-12 08:38:06 51°19.032 2°55.902 64 12.5 66 10.7
2010-04-12 08:38:11 51°19.039 2°55.928 64.1 12.5 67 11.1
2010-04-12 08:38:16 51°19.046 2°55.953 64 12.4 66 10.8
2010-04-12 08:38:22 51°19.054 2°55.984 64.4 12.5 67 11
2010-04-12 08:38:26 51°19.059 2°56.004 64.3 12.4 67 10.6
2010-04-12 08:38:31 51°19.066 2°56.029 64.7 12.4 66 10.8
2010-04-12 08:38:35 51°19.072 2°56.049 64 12.5 66 10.9
2010-04-12 08:38:42 51°19.081 2°56.084 64 12.4 67 10.8
2010-04-12 08:38:46 51°19.087 2°56.104 64.1 12.3 65 10.6
2010-04-12 08:38:51 51°19.094 2°56.13 64.5 12.4 69 10.9
2010-04-12 08:38:56 51°19.101 2°56.154 64.3 12.4 65 11
2010-04-12 08:39:02 51°19.109 2°56.185 64 12.5 67 11.1
2010-04-12 08:39:06 51°19.115 2°56.205 63.7 12.4 64 10.5
2010-04-12 08:39:11 51°19.121 2°56.23 64 12.5 68 10.9
2010-04-12 08:39:16 51°19.129 2°56.255 63.8 12.4 64 11.2
2010-04-12 08:39:22 51°19.137 2°56.286 63.8 12.5 69 10.9
2010-04-12 08:39:26 51°19.143 2°56.305 64 12.3 63 10.5
2010-04-12 08:39:31 51°19.15 2°56.331 64.5 12.4 69 10.7
2010-04-12 08:39:36 51°19.157 2°56.356 64.7 12.3 63 10.4
2010-04-12 08:39:41 51°19.164 2°56.381 63.8 12.4 66 10.6
2010-04-12 08:39:46 51°19.171 2°56.406 64 12.3 63 10.3
2010-04-12 08:39:51 51°19.179 2°56.429 62.5 12.4 63 10.9
2010-04-12 08:39:57 51°19.188 2°56.459 61.8 12.5 64 10.9
2010-04-12 08:40:02 51°19.197 2°56.483 60.9 12.4 61 10.8
2010-04-12 08:40:06 51°19.203 2°56.502 60.8 12.3 63 11
2010-04-12 08:40:11 51°19.211 2°56.526 60.1 12.3 61 10.8
2010-04-12 08:40:16 51°19.219 2°56.55 59.9 12.3 61 10.6
2010-04-12 08:40:22 51°19.23 2°56.579 59.3 12.4 60 10.8
2010-04-12 08:40:26 51°19.236 2°56.598 59 12.4 61 10.7
2010-04-12 08:40:31 51°19.245 2°56.622 59.1 12.4 60 10.5
2010-04-12 08:40:36 51°19.254 2°56.645 58.7 12.4 60 10.6
2010-04-12 08:40:42 51°19.264 2°56.674 58.8 12.4 59 10.7
2010-04-12 08:40:46 51°19.271 2°56.693 58.6 12.4 61 10.7
2010-04-12 08:40:51 51°19.28 2°56.717 58.8 12.3 60 10.4
2010-04-12 08:40:55 51°19.286 2°56.736 59 12.4 61 11
2010-04-12 08:41:02 51°19.298 2°56.77 58.9 12.4 61 11
2010-04-12 08:41:06 51°19.305 2°56.788 58.4 12.4 61 11.2
2010-04-12 08:41:11 51°19.313 2°56.813 59.8 12.4 61 10.9
2010-04-12 08:41:16 51°19.322 2°56.836 58.6 12.4 59 10.3
2010-04-12 08:41:22 51°19.332 2°56.865 59 12.3 61 10.4
2010-04-12 08:41:26 51°19.339 2°56.883 58.9 12.3 60 10.6
2010-04-12 08:41:31 51°19.347 2°56.908 58.9 12.4 60 10.9
2010-04-12 08:41:36 51°19.356 2°56.931 58.8 12.3 60 10.5
2010-04-12 08:41:42 51°19.366 2°56.96 59 12.3 59 10.5
2010-04-12 08:41:46 51°19.373 2°56.979 59.4 12.4 62 10.6
2010-04-12 08:41:51 51°19.382 2°57.003 59 12.4 59 10.8
2010-04-12 08:41:57 51°19.391 2°57.032 59.1 12.4 62 10.8
2010-04-12 08:42:02 51°19.4 2°57.055 59.2 12.4 60 10.3
2010-04-12 08:42:06 51°19.406 2°57.075 59.8 12.4 63 10.5
2010-04-12 08:42:11 51°19.415 2°57.099 59.8 12.4 60 10.8
2010-04-12 08:42:16 51°19.424 2°57.123 59.2 12.5 62 10.9
2010-04-12 08:42:22 51°19.434 2°57.151 59.6 12.4 59 10.5
2010-04-12 08:42:26 51°19.441 2°57.171 59.1 12.5 61 10.6
2010-04-12 08:42:31 51°19.45 2°57.194 59.2 12.5 58 10.7
2010-04-12 08:42:36 51°19.459 2°57.218 58.6 12.4 61 10.4
2010-04-12 08:42:42 51°19.469 2°57.247 59.2 12.5 59 10.8
2010-04-12 08:42:46 51°19.476 2°57.267 59.2 12.5 62 11
2010-04-12 08:42:51 51°19.484 2°57.29 59.2 12.4 60 10.7
2010-04-12 08:42:55 51°19.491 2°57.309 59.2 12.5 61 10.9
2010-04-12 08:43:02 51°19.503 2°57.343 58.9 12.5 59 10.5
2010-04-12 08:43:06 51°19.51 2°57.363 59 12.5 61 10.3
2010-04-12 08:43:11 51°19.519 2°57.386 59 12.5 60 11
2010-04-12 08:43:16 51°19.527 2°57.41 59.3 12.5 60 10.6
2010-04-12 08:43:22 51°19.537 2°57.44 59.5 12.6 61 10.8
2010-04-12 08:43:26 51°19.545 2°57.458 58.4 12.5 59 11
2010-04-12 08:43:31 51°19.553 2°57.483 59.5 12.5 60 10.6
2010-04-12 08:43:36 51°19.562 2°57.506 58.8 12.5 60 10.4
2010-04-12 08:43:42 51°19.572 2°57.536 59.1 12.6 62 10.8
2010-04-12 08:43:46 51°19.579 2°57.554 59.6 12.5 58 10.6
2010-04-12 08:43:51 51°19.587 2°57.579 59.6 12.6 63 10.8
2010-04-12 08:43:56 51°19.597 2°57.602 58.6 12.6 57 11
2010-04-12 08:44:01 51°19.605 2°57.627 58.6 12.6 62 10.9
2010-04-12 08:44:06 51°19.615 2°57.65 59 12.6 59 10.8
2010-04-12 08:44:11 51°19.623 2°57.675 59.3 12.6 60 10.8
2010-04-12 08:44:17 51°19.633 2°57.703 58.8 12.5 60 10.5
2010-04-12 08:44:22 51°19.642 2°57.727 58.9 12.5 60 10.6
2010-04-12 08:44:26 51°19.649 2°57.746 59 12.5 60 10.8
2010-04-12 08:44:31 51°19.658 2°57.77 59.1 12.5 61 10.5
2010-04-12 08:44:36 51°19.667 2°57.794 59.2 12.4 60 10.5
2010-04-12 08:44:42 51°19.677 2°57.823 59.3 12.4 61 10.7
2010-04-12 08:44:46 51°19.684 2°57.842 59.1 12.5 60 10.7
2010-04-12 08:44:51 51°19.692 2°57.866 59.1 12.3 59 10.6
2010-04-12 08:44:57 51°19.702 2°57.893 58.8 11.6 60 10.4
2010-04-12 08:45:02 51°19.71 2°57.914 58.9 11.1 61 10.9
2010-04-12 08:45:06 51°19.716 2°57.93 59.3 10.5 60 10.7
2010-04-12 08:45:11 51°19.723 2°57.95 58.8 9.9 59 10.7
2010-04-12 08:45:15 51°19.728 2°57.964 58.5 9.4 60 10.5
2010-04-12 08:45:21 51°19.736 2°57.985 58.4 9 60 10.7
2010-04-12 08:45:26 51°19.741 2°58.002 58.9 8.6 61 11
2010-04-12 08:45:31 51°19.747 2°58.018 58.9 8 63 11
2010-04-12 08:45:36 51°19.751 2°58.032 59.1 7.3 63 10.8
2010-04-12 08:45:42 51°19.757 2°58.049 59.6 6.8 63 11.1
2010-04-12 08:45:46 51°19.76 2°58.059 59.1 6.3 63 11
2010-04-12 08:45:51 51°19.764 2°58.07 58.5 5.8 62 10.8
2010-04-12 08:45:56 51°19.767 2°58.081 58.2 5.4 62 11
2010-04-12 08:46:02 51°19.771 2°58.093 57.2 5.1 62 11.3
2010-04-12 08:46:06 51°19.774 2°58.1 56.3 4.7 63 11.1
2010-04-12 08:46:11 51°19.776 2°58.108 55.3 4.2 60 10.9
2010-04-12 08:46:16 51°19.779 2°58.116 53.9 3.8 66 10.7
2010-04-12 08:46:21 51°19.781 2°58.123 53.8 3.4 66 11
2010-04-12 08:46:26 51°19.782 2°58.129 55.7 3 72 10.7
2010-04-12 08:46:31 51°19.783 2°58.135 58.6 2.6 74 10.8
2010-04-12 08:46:37 51°19.784 2°58.142 62 2.4 85 10.7
2010-04-12 08:46:42 51°19.783 2°58.146 66.1 2.1 90 10.5
2010-04-12 08:46:46 51°19.783 2°58.15 71 2 100 10.6
2010-04-12 08:46:51 51°19.782 2°58.154 73.9 1.8 111 10.9
2010-04-12 08:46:56 51°19.782 2°58.157 77.8 1.6 117 11
2010-04-12 08:47:02 51°19.78 2°58.16 81.9 1.4 126 10.7
2010-04-12 08:47:06 51°19.779 2°58.162 85.5 1.2 137 10.7
2010-04-12 08:47:11 51°19.777 2°58.163 89.2 1.1 155 10.6
2010-04-12 08:47:17 51°19.776 2°58.164 92.5 1.1 156 10.6
2010-04-12 08:47:22 51°19.774 2°58.165 95.3 1.2 161 10.7
2010-04-12 08:47:26 51°19.773 2°58.166 97.1 1.3 163 10.8
2010-04-12 08:47:31 51°19.771 2°58.167 99.1 1.2 159 10.6
2010-04-12 08:47:35 51°19.77 2°58.167 100.3 1.3 162 10.6
2010-04-12 08:47:42 51°19.767 2°58.169 101.8 1.3 167 10.5
2010-04-12 08:47:46 51°19.765 2°58.169 104 1.4 171 10.5
2010-04-12 08:47:51 51°19.763 2°58.17 105.4 1.4 173 10.7
2010-04-12 08:47:56 51°19.761 2°58.17 106.8 1.5 171 10.9
2010-04-12 08:48:02 51°19.759 2°58.171 107.6 1.4 163 11
2010-04-12 08:48:06 51°19.757 2°58.172 107 1.6 170 10.9
2010-04-12 08:48:11 51°19.755 2°58.173 107 1.5 173 10.6
2010-04-12 08:48:16 51°19.753 2°58.173 107.5 1.5 174 10.3
2010-04-12 08:48:22 51°19.751 2°58.173 108 1.5 178 10.4
2010-04-12 08:48:26 51°19.749 2°58.173 108.3 1.5 177 10.8
2010-04-12 08:48:31 51°19.747 2°58.173 108.9 1.6 179 11.3
2010-04-12 08:48:37 51°19.745 2°58.173 109.5 1.5 179 11.3
2010-04-12 08:48:42 51°19.743 2°58.173 110.3 1.6 179 11
2010-04-12 08:48:46 51°19.741 2°58.173 110.9 1.5 178 10.7
2010-04-12 08:48:51 51°19.739 2°58.173 111.5 1.4 181 10.3
2010-04-12 08:48:56 51°19.737 2°58.173 112.5 1.4 185 10.4
2010-04-12 08:49:02 51°19.735 2°58.172 113.2 1.5 190 10.7
2010-04-12 08:49:06 51°19.733 2°58.172 114 1.4 189 11
2010-04-12 08:49:11 51°19.731 2°58.172 114.1 1.4 188 10.7
2010-04-12 08:49:16 51°19.729 2°58.171 114.3 1.3 186 10.6
2010-04-12 08:49:22 51°19.727 2°58.17 114.4 1.5 187 10.7
2010-04-12 08:49:26 51°19.725 2°58.17 114.6 1.2 186 10.8
2010-04-12 08:49:31 51°19.723 2°58.17 114.8 1.6 192 10.3
2010-04-12 08:49:36 51°19.722 2°58.169 115.5 1.4 187 10.2
2010-04-12 08:49:42 51°19.719 2°58.169 116.5 1.6 187 10.3
2010-04-12 08:49:46 51°19.717 2°58.168 117.1 1.2 182 10.6
2010-04-12 08:49:51 51°19.715 2°58.167 117.2 1.6 193 10.8
2010-04-12 08:49:56 51°19.713 2°58.166 118.3 1.5 191 10.9
2010-04-12 08:50:01 51°19.711 2°58.166 119.3 1.5 192 10.3
2010-04-12 08:50:07 51°19.708 2°58.165 119.7 1.6 190 10.4
2010-04-12 08:50:11 51°19.707 2°58.164 119.8 1.6 189 10.8
2010-04-12 08:50:16 51°19.705 2°58.163 119.5 1.4 187 10.8
2010-04-12 08:50:21 51°19.702 2°58.163 119.5 1.8 196 10.9
2010-04-12 08:50:27 51°19.7 2°58.162 120.6 1.5 194 10.6
2010-04-12 08:50:31 51°19.698 2°58.161 121.3 1.5 192 10.4
2010-04-12 08:50:36 51°19.696 2°58.16 120.9 1.5 191 10.6
2010-04-12 08:50:41 51°19.694 2°58.16 120.9 1.4 190 10.8
2010-04-12 08:50:46 51°19.692 2°58.159 120.7 1.5 195 10.7
2010-04-12 08:50:51 51°19.69 2°58.158 121.5 1.5 195 10.5
2010-04-12 08:50:56 51°19.688 2°58.157 122.1 1.5 196 10.5
2010-04-12 08:51:02 51°19.686 2°58.156 122.5 1.5 194 10.6
2010-04-12 08:51:06 51°19.684 2°58.155 122.6 1.5 197 10.8
2010-04-12 08:51:11 51°19.682 2°58.155 123.1 1.6 199 10.8
2010-04-12 08:51:17 51°19.68 2°58.154 123.6 1.5 197 10.6
2010-04-12 08:51:22 51°19.678 2°58.153 124.2 1.4 192 10.5
2010-04-12 08:51:26 51°19.676 2°58.152 124 1.5 191 10.6
2010-04-12 08:51:31 51°19.674 2°58.151 123.4 1.5 195 10.7
2010-04-12 08:51:37 51°19.671 2°58.15 123.4 1.6 195 11
2010-04-12 08:51:41 51°19.67 2°58.149 123.4 1.6 193 10.9
2010-04-12 08:51:46 51°19.668 2°58.149 123.5 1.6 190 10.8
2010-04-12 08:51:51 51°19.665 2°58.148 123 1.6 193 10.8
2010-04-12 08:51:56 51°19.663 2°58.147 122.3 1.5 196 10.6
2010-04-12 08:52:01 51°19.662 2°58.147 122 1.5 195 10.3
2010-04-12 08:52:07 51°19.659 2°58.146 121.4 1.5 192 10.3
2010-04-12 08:52:11 51°19.657 2°58.145 121.1 1.5 193 10.2
2010-04-12 08:52:16 51°19.655 2°58.144 120.8 1.5 196 10.6
2010-04-12 08:52:21 51°19.653 2°58.143 120.4 1.6 196 10.8
2010-04-12 08:52:26 51°19.651 2°58.143 120.5 1.5 191 10.5
2010-04-12 08:52:31 51°19.649 2°58.143 120.6 1.5 181 10.2
2010-04-12 08:52:36 51°19.646 2°58.143 120.4 1.6 170 10.2
2010-04-12 08:52:41 51°19.644 2°58.144 119.6 1.9 162 10.5
2010-04-12 08:52:46 51°19.641 2°58.146 117.5 2.2 160 10.5
2010-04-12 08:52:51 51°19.638 2°58.148 115.2 2.4 148 10.9
2010-04-12 08:52:56 51°19.636 2°58.152 112.3 2.6 138 10.6
2010-04-12 08:53:01 51°19.633 2°58.157 109.1 2.8 127 10.6
2010-04-12 08:53:06 51°19.631 2°58.162 104.4 3.1 125 10.8
2010-04-12 08:53:11 51°19.629 2°58.169 100.2 3.2 117 10.6
2010-04-12 08:53:17 51°19.627 2°58.177 96.2 3.4 112 10.3
2010-04-12 08:53:21 51°19.626 2°58.183 91.9 3.5 104 10.3
2010-04-12 08:53:26 51°19.625 2°58.191 87.2 3.6 99 10.3
2010-04-12 08:53:31 51°19.625 2°58.199 82.7 3.7 92 10.4
2010-04-12 08:53:37 51°19.625 2°58.209 78.1 3.7 86 10.2
2010-04-12 08:53:42 51°19.626 2°58.218 72.8 3.9 80 10.7
2010-04-12 08:53:46 51°19.627 2°58.224 67.7 4 74 10.6
2010-04-12 08:53:51 51°19.629 2°58.233 62.8 4.1 70 10.8
2010-04-12 08:53:56 51°19.631 2°58.241 57.3 4.2 61 10.8
2010-04-12 08:54:01 51°19.634 2°58.249 52.7 4.4 61 10.1
2010-04-12 08:54:07 51°19.638 2°58.26 50.9 4.8 58 10.6
2010-04-12 08:54:11 51°19.641 2°58.268 51.2 5.4 60 11
2010-04-12 08:54:16 51°19.646 2°58.278 51.6 5.7 56 10.5
2010-04-12 08:54:21 51°19.65 2°58.29 51.9 6.2 58 10.9
2010-04-12 08:54:26 51°19.655 2°58.302 51.7 6.5 56 10.5
2010-04-12 08:54:31 51°19.661 2°58.314 52.2 6.7 56 10
2010-04-12 08:54:36 51°19.666 2°58.326 52.5 7 56 10
2010-04-12 08:54:41 51°19.672 2°58.34 52.4 7.4 55 10.6
2010-04-12 08:54:47 51°19.679 2°58.357 53.1 7.6 56 10.3
2010-04-12 08:54:51 51°19.684 2°58.368 52.7 7.9 56 10.3
2010-04-12 08:54:56 51°19.69 2°58.384 54.9 8.2 59 10.3
2010-04-12 08:55:01 51°19.696 2°58.4 56.3 8.5 58 10.8
2010-04-12 08:55:07 51°19.703 2°58.419 56.3 8.6 61 10.4
2010-04-12 08:55:11 51°19.708 2°58.433 58.2 8.6 61 10.2
2010-04-12 08:55:16 51°19.713 2°58.45 58.7 8.6 64 10.2
2010-04-12 08:55:21 51°19.719 2°58.467 60.3 8.9 61 10.5
2010-04-12 08:55:26 51°19.725 2°58.485 59.7 9.4 62 10.4
2010-04-12 08:55:31 51°19.731 2°58.505 59.7 9.8 61 10.3
2010-04-12 08:55:36 51°19.738 2°58.525 60.3 10.5 63 10.3
2010-04-12 08:55:41 51°19.746 2°58.545 60.4 10.9 58 10.3
2010-04-12 08:55:46 51°19.753 2°58.568 60.3 11.4 65 10.4
2010-04-12 08:55:51 51°19.762 2°58.589 60 11.7 56 10.4
2010-04-12 08:55:57 51°19.77 2°58.618 60.8 12 65 10.2
2010-04-12 08:56:01 51°19.778 2°58.636 60.5 12.2 56 10
2010-04-12 08:56:06 51°19.786 2°58.66 60.4 12.4 63 10.2
2010-04-12 08:56:11 51°19.794 2°58.684 61.1 12.5 60 10.4
2010-04-12 08:56:16 51°19.803 2°58.708 60.7 12.7 61 10.4
2010-04-12 08:56:22 51°19.813 2°58.738 61 12.7 61 10.3
2010-04-12 08:56:26 51°19.82 2°58.758 61.3 12.8 62 10.1
2010-04-12 08:56:31 51°19.829 2°58.782 60.7 12.8 60 10.4
2010-04-12 08:56:36 51°19.837 2°58.807 61.5 12.8 62 10
2010-04-12 08:56:41 51°19.846 2°58.832 60.6 12.8 61 10.3
2010-04-12 08:56:47 51°19.855 2°58.862 62.2 12.8 64 10.1
2010-04-12 08:56:51 51°19.862 2°58.882 62.1 12.8 62 10.3
2010-04-12 08:56:57 51°19.871 2°58.913 63.2 12.9 64 10.2
2010-04-12 08:57:01 51°19.878 2°58.934 63.5 13 64 10
2010-04-12 08:57:06 51°19.886 2°58.959 64 12.8 63 9.9
2010-04-12 08:57:11 51°19.893 2°58.985 64 13 66 10.9
2010-04-12 08:57:16 51°19.9 2°59.012 64.9 13 65 10.3
2010-04-12 08:57:21 51°19.909 2°59.037 64.5 12.9 66 10
2010-04-12 08:57:26 51°19.916 2°59.063 65.1 12.9 66 10.4
2010-04-12 08:57:31 51°19.923 2°59.09 65.4 13 65 10.1
2010-04-12 08:57:37 51°19.932 2°59.12 64.7 13 64 10
2010-04-12 08:57:41 51°19.938 2°59.142 65.1 13 67 9.9
2010-04-12 08:57:46 51°19.946 2°59.168 65.7 13 66 9.8
2010-04-12 08:57:51 51°19.952 2°59.195 66.4 13 67 10.2
2010-04-12 08:57:56 51°19.96 2°59.221 66.2 13 68 10.4
2010-04-12 08:58:01 51°19.966 2°59.248 67.7 13.1 68 10.2
2010-04-12 08:58:06 51°19.974 2°59.274 66.9 13 66 10.3
2010-04-12 08:58:11 51°19.98 2°59.302 67.6 13.1 70 9.9
2010-04-12 08:58:16 51°19.987 2°59.328 67.6 13 67 10.4
2010-04-12 08:58:22 51°19.994 2°59.361 68.4 13 72 10
2010-04-12 08:58:26 51°20 2°59.381 67.9 13 66 10.3
2010-04-12 08:58:31 51°20.006 2°59.409 68.1 13.1 71 10
2010-04-12 08:58:36 51°20.013 2°59.435 67.8 13 66 9.9
2010-04-12 08:58:42 51°20.021 2°59.468 67.7 12.9 70 10.2
2010-04-12 08:58:47 51°20.027 2°59.494 68.1 12.9 68 10.5
2010-04-12 08:58:51 51°20.033 2°59.515 67.6 12.9 68 10
2010-04-12 08:58:57 51°20.04 2°59.547 67.9 13.1 69 10.2
2010-04-12 08:59:02 51°20.048 2°59.574 67.7 13.1 66 10.1
2010-04-12 08:59:07 51°20.053 2°59.601 67.1 12.9 71 9.9
2010-04-12 08:59:11 51°20.059 2°59.622 68.3 12.9 68 9.9
2010-04-12 08:59:16 51°20.065 2°59.649 68 13 68 9.8
2010-04-12 08:59:21 51°20.072 2°59.675 67.5 13 69 9.9
2010-04-12 08:59:27 51°20.08 2°59.708 67.7 13 69 10.5
2010-04-12 08:59:31 51°20.085 2°59.729 67.6 12.9 68 9.9
2010-04-12 08:59:37 51°20.092 2°59.761 68 13 70 9.8
2010-04-12 08:59:41 51°20.098 2°59.782 67.9 12.9 66 10.2
2010-04-12 08:59:46 51°20.105 2°59.809 67.5 13.1 72 10.2
2010-04-12 08:59:51 51°20.111 2°59.836 67.8 13 65 10.1
2010-04-12 08:59:57 51°20.119 2°59.868 67.4 13 70 9.7
2010-04-12 09:00:02 51°20.126 2°59.895 67.8 12.8 67 9.7
2010-04-12 09:00:06 51°20.131 2°59.916 67.8 13 69 10.2
2010-04-12 09:00:11 51°20.138 2°59.942 67.9 13 68 10.1
2010-04-12 09:00:17 51°20.145 2°59.974 67.8 12.9 69 9.6
2010-04-12 09:00:21 51°20.151 2°59.995 67.5 12.9 67 9.9
2010-04-12 09:00:26 51°20.157 3°0.022 67.6 12.9 69 9.9
2010-04-12 09:00:31 51°20.165 3°0.048 67.6 13 69 10.2
2010-04-12 09:00:37 51°20.173 3°0.08 67.1 13 68 10
2010-04-12 09:00:42 51°20.179 3°0.107 67.3 12.9 68 9.8
2010-04-12 09:00:46 51°20.184 3°0.128 67.5 13 69 10
2010-04-12 09:00:51 51°20.191 3°0.155 67.6 13 68 10
2010-04-12 09:00:56 51°20.198 3°0.182 67.6 13 69 9.9
2010-04-12 09:01:01 51°20.204 3°0.209 67.9 13 67 9.7
2010-04-12 09:01:07 51°20.213 3°0.241 67.4 13.1 68 9.8
2010-04-12 09:01:11 51°20.218 3°0.263 67.7 13.1 68 9.9
2010-04-12 09:01:17 51°20.226 3°0.294 67.3 13 68 10
2010-04-12 09:01:21 51°20.231 3°0.316 68.1 13 70 9.5
2010-04-12 09:01:27 51°20.238 3°0.349 68.1 13.1 69 10.1
2010-04-12 09:01:31 51°20.244 3°0.37 67.5 13 68 9.7
2010-04-12 09:01:36 51°20.25 3°0.397 68 13.1 69 10
2010-04-12 09:01:41 51°20.257 3°0.423 67.9 13 68 10
2010-04-12 09:01:47 51°20.265 3°0.456 67.6 13.1 70 10
2010-04-12 09:01:51 51°20.271 3°0.477 67.9 13 66 9.7
2010-04-12 09:01:56 51°20.277 3°0.504 67.5 13 70 10
2010-04-12 09:02:01 51°20.284 3°0.531 67.7 13 69 9.7
2010-04-12 09:02:06 51°20.29 3°0.558 68.3 13.1 70 10
2010-04-12 09:02:11 51°20.297 3°0.585 68.3 13.1 68 10.1
2010-04-12 09:02:16 51°20.304 3°0.611 67.9 13 69 10.1
2010-04-12 09:02:22 51°20.312 3°0.643 67.8 13 67 9.9
2010-04-12 09:02:26 51°20.317 3°0.665 67.6 13.1 67 9.6
2010-04-12 09:02:31 51°20.324 3°0.692 67 13.2 67 10.2
2010-04-12 09:02:37 51°20.333 3°0.723 66.4 13 67 9.8
2010-04-12 09:02:42 51°20.339 3°0.75 67.6 13.1 69 10.2
2010-04-12 09:02:46 51°20.346 3°0.771 66.9 13.1 68 10.4
2010-04-12 09:02:51 51°20.352 3°0.799 68.1 13.2 69 10.4
2010-04-12 09:02:56 51°20.359 3°0.826 67.5 13.1 67 10.1
2010-04-12 09:03:01 51°20.365 3°0.853 66.9 13.1 68 10.3
2010-04-12 09:03:06 51°20.372 3°0.879 67.3 13.1 67 10
2010-04-12 09:03:11 51°20.379 3°0.906 67.4 13 68 10.1
2010-04-12 09:03:16 51°20.386 3°0.933 66.6 13 68 9.9
2010-04-12 09:03:22 51°20.394 3°0.965 67.6 13.1 68 9.9
2010-04-12 09:03:26 51°20.4 3°0.986 67.3 13 66 10.2
2010-04-12 09:03:31 51°20.406 3°1.013 66.9 13 69 10.3
2010-04-12 09:03:37 51°20.414 3°1.045 67.2 13 68 10.3
2010-04-12 09:03:41 51°20.42 3°1.066 67.3 13.1 67 10.6
2010-04-12 09:03:47 51°20.428 3°1.099 67.3 13 68 10.2
2010-04-12 09:03:51 51°20.434 3°1.12 67.6 13 67 9.9
2010-04-12 09:03:56 51°20.441 3°1.146 67.2 13.1 65 9.9
2010-04-12 09:04:01 51°20.448 3°1.173 66.8 13.1 68 9.9
2010-04-12 09:04:06 51°20.454 3°1.2 66.9 13 69 10.5
2010-04-12 09:04:11 51°20.461 3°1.227 67.8 13.1 67 10
2010-04-12 09:04:16 51°20.468 3°1.254 66.9 13.2 67 10.2
2010-04-12 09:04:21 51°20.475 3°1.281 67.1 13.2 69 10.3
2010-04-12 09:04:26 51°20.482 3°1.308 67.2 13 67 10.1
2010-04-12 09:04:31 51°20.489 3°1.335 67.1 13 69 9.7
2010-04-12 09:04:36 51°20.496 3°1.361 67.4 13.1 66 10.3
2010-04-12 09:04:42 51°20.503 3°1.394 67 13.1 69 10
2010-04-12 09:04:46 51°20.509 3°1.415 67.6 13.1 67 9.8
2010-04-12 09:04:51 51°20.516 3°1.442 67.4 13.2 68 10.3
2010-04-12 09:04:55 51°20.522 3°1.464 67.1 13.1 67 9.9
2010-04-12 09:05:02 51°20.531 3°1.501 67.2 13.1 67 9.8
2010-04-12 09:05:06 51°20.537 3°1.522 66.9 13.1 68 10.1
2010-04-12 09:05:11 51°20.544 3°1.549 67.4 13.1 68 10.1
2010-04-12 09:05:16 51°20.55 3°1.576 67.4 13.2 67 10
2010-04-12 09:05:21 51°20.558 3°1.603 67.1 13.1 66 10.2
2010-04-12 09:05:26 51°20.565 3°1.63 66.9 13.1 68 9.9
2010-04-12 09:05:31 51°20.572 3°1.656 67.4 13.1 67 10.1
2010-04-12 09:05:36 51°20.579 3°1.684 67.1 13.1 69 9.9
2010-04-12 09:05:41 51°20.586 3°1.711 67.5 13.2 66 10.3
2010-04-12 09:05:46 51°20.593 3°1.737 66.9 13.2 69 10.2
2010-04-12 09:05:51 51°20.6 3°1.764 67.5 13 67 10
2010-04-12 09:05:57 51°20.607 3°1.797 67.5 13.2 69 10
2010-04-12 09:06:01 51°20.613 3°1.818 67.1 13.2 66 10.4
2010-04-12 09:06:07 51°20.621 3°1.851 67.2 13.2 69 10.1
2010-04-12 09:06:11 51°20.627 3°1.872 67.6 13 66 9.6
2010-04-12 09:06:16 51°20.634 3°1.899 67.6 13.1 70 10.2
2010-04-12 09:06:21 51°20.641 3°1.926 67.9 13.2 65 10
2010-04-12 09:06:26 51°20.648 3°1.953 67.1 13.3 69 10
2010-04-12 09:06:31 51°20.655 3°1.98 67.9 13.2 67 10.2
2010-04-12 09:06:36 51°20.662 3°2.007 67.1 13.2 68 10.2
2010-04-12 09:06:41 51°20.669 3°2.034 67.6 13.2 68 10.1
2010-04-12 09:06:46 51°20.676 3°2.061 67.9 13.2 68 10
2010-04-12 09:06:51 51°20.682 3°2.088 67.8 13.2 68 10.5
2010-04-12 09:06:56 51°20.69 3°2.115 67.7 13.2 66 10.2
2010-04-12 09:07:02 51°20.698 3°2.148 67.1 13.2 68 10
2010-04-12 09:07:06 51°20.704 3°2.168 66.9 13.2 65 10.2
2010-04-12 09:07:11 51°20.71 3°2.196 67.5 13.2 69 10.3
2010-04-12 09:07:15 51°20.717 3°2.217 67 13.3 67 10.2
2010-04-12 09:07:22 51°20.726 3°2.256 67.5 13.2 68 10
2010-04-12 09:07:26 51°20.733 3°2.277 66.7 13.1 66 9.8
2010-04-12 09:07:31 51°20.739 3°2.304 67.6 13.2 67 10.1
2010-04-12 09:07:36 51°20.747 3°2.331 66.9 13.3 67 10
2010-04-12 09:07:41 51°20.753 3°2.358 67.5 13.3 67 10
2010-04-12 09:07:47 51°20.762 3°2.39 66.7 13.2 66 9.8
2010-04-12 09:07:51 51°20.767 3°2.412 67.4 13.2 68 10.1
2010-04-12 09:07:56 51°20.775 3°2.439 67.5 13.3 65 10.3
2010-04-12 09:08:01 51°20.781 3°2.467 66.9 13.4 69 10.2
2010-04-12 09:08:06 51°20.789 3°2.494 67.1 13.3 66 10.4
2010-04-12 09:08:11 51°20.796 3°2.521 66.9 13.2 68 10.3
2010-04-12 09:08:16 51°20.802 3°2.547 66.9 13.2 68 10.1
2010-04-12 09:08:22 51°20.81 3°2.58 67.6 13.3 69 9.9
2010-04-12 09:08:26 51°20.817 3°2.602 67.5 13.2 67 10.3
2010-04-12 09:08:31 51°20.823 3°2.629 67.2 13.3 68 10.5
2010-04-12 09:08:37 51°20.832 3°2.661 67 13.2 67 10
2010-04-12 09:08:41 51°20.837 3°2.684 67.6 13.2 69 10.1
2010-04-12 09:08:46 51°20.845 3°2.71 66.9 13.2 67 10.3
2010-04-12 09:08:51 51°20.851 3°2.738 67.6 13.3 67 10.3
2010-04-12 09:08:56 51°20.859 3°2.765 67.2 13.2 68 9.8
2010-04-12 09:09:01 51°20.865 3°2.792 67 13.2 68 10.3
2010-04-12 09:09:06 51°20.872 3°2.819 67.6 13.3 68 10
2010-04-12 09:09:11 51°20.879 3°2.847 68.1 13.3 66 9.9
2010-04-12 09:09:17 51°20.888 3°2.879 67.3 13.3 68 10
2010-04-12 09:09:21 51°20.894 3°2.901 67.5 13.3 67 10.1
2010-04-12 09:09:27 51°20.902 3°2.934 66.9 13.3 68 10.3
2010-04-12 09:09:31 51°20.908 3°2.956 67.6 13.4 69 10.2
2010-04-12 09:09:37 51°20.917 3°2.988 66.9 13.3 67 10.3
2010-04-12 09:09:42 51°20.923 3°3.016 67.4 13.3 68 10.5
2010-04-12 09:09:46 51°20.929 3°3.038 67.4 13.3 67 10.2
2010-04-12 09:09:51 51°20.936 3°3.065 66.9 13.3 68 10.3
2010-04-12 09:09:56 51°20.943 3°3.092 67.4 13.3 67 10.1
2010-04-12 09:10:01 51°20.951 3°3.119 67 13.4 67 10.2
2010-04-12 09:10:06 51°20.958 3°3.146 66.7 13.4 67 10.3
2010-04-12 09:10:11 51°20.965 3°3.174 66.9 13.3 67 10.1
2010-04-12 09:10:16 51°20.972 3°3.201 66.9 13.3 67 10.3
2010-04-12 09:10:21 51°20.979 3°3.229 66.9 13.4 69 10.6
2010-04-12 09:10:27 51°20.988 3°3.261 67.4 13.4 66 10.4
2010-04-12 09:10:31 51°20.993 3°3.283 66.5 13.3 69 10.2
2010-04-12 09:10:36 51°21 3°3.31 67.3 13.4 67 10.7
2010-04-12 09:10:41 51°21.007 3°3.338 66.5 13.3 69 10.8
2010-04-12 09:10:46 51°21.014 3°3.365 67.4 13.3 68 10.4
2010-04-12 09:10:51 51°21.021 3°3.392 67.5 13.3 68 10.6
2010-04-12 09:10:56 51°21.028 3°3.42 67.3 13.3 67 10.3
2010-04-12 09:11:01 51°21.035 3°3.447 66.8 13.3 69 10.6
2010-04-12 09:11:06 51°21.042 3°3.474 67.7 13.3 68 10.4
2010-04-12 09:11:11 51°21.049 3°3.501 67.5 13.3 67 10.7
2010-04-12 09:11:16 51°21.055 3°3.529 67.4 13.3 69 10.6
2010-04-12 09:11:22 51°21.064 3°3.561 67.5 13.2 67 10.3
2010-04-12 09:11:26 51°21.07 3°3.583 67.2 13.4 67 10.4
2010-04-12 09:11:31 51°21.078 3°3.61 67 13.4 66 10.5
2010-04-12 09:11:37 51°21.086 3°3.643 66.4 13.2 68 10.3
2010-04-12 09:11:41 51°21.092 3°3.664 67.1 13.3 65 10.5
2010-04-12 09:11:46 51°21.099 3°3.692 66.6 13.3 67 10.6
2010-04-12 09:11:51 51°21.107 3°3.719 66.7 13.4 65 10.5
2010-04-12 09:11:56 51°21.114 3°3.746 66.5 13.3 67 10.2
2010-04-12 09:12:01 51°21.121 3°3.773 66.8 13.2 67 10.8
2010-04-12 09:12:06 51°21.129 3°3.799 66.3 13.3 65 10.6
2010-04-12 09:12:11 51°21.136 3°3.827 67 13.4 66 10.6
2010-04-12 09:12:16 51°21.143 3°3.854 66.5 13.3 69 11
2010-04-12 09:12:22 51°21.153 3°3.886 67.2 13.2 66 10.9
2010-04-12 09:12:26 51°21.158 3°3.908 67.3 13.3 69 11
2010-04-12 09:12:31 51°21.165 3°3.935 67.4 13.2 68 11.2
2010-04-12 09:12:37 51°21.174 3°3.968 68.2 13.3 67 10.8
2010-04-12 09:12:41 51°21.179 3°3.99 67.5 13.3 66 11
2010-04-12 09:12:47 51°21.188 3°4.022 66.9 13.3 68 11
2010-04-12 09:12:51 51°21.194 3°4.043 67.2 13.1 67 10.6
2010-04-12 09:12:56 51°21.2 3°4.071 67.8 13.2 67 11.1
2010-04-12 09:13:01 51°21.208 3°4.098 67 13.3 67 11
2010-04-12 09:13:06 51°21.215 3°4.125 67.4 13.2 66 10.8
2010-04-12 09:13:11 51°21.222 3°4.152 67.1 13.2 68 11.2
2010-04-12 09:13:16 51°21.229 3°4.179 67.4 13.2 68 11.3
2010-04-12 09:13:21 51°21.236 3°4.206 67.8 13.2 67 10.8
2010-04-12 09:13:26 51°21.243 3°4.233 67.7 13.3 68 11.1
2010-04-12 09:13:31 51°21.25 3°4.26 67.5 13.3 67 10.9
2010-04-12 09:13:36 51°21.257 3°4.287 67.4 13.2 68 11.1
2010-04-12 09:13:42 51°21.266 3°4.32 68 13.2 67 11.2
2010-04-12 09:13:46 51°21.271 3°4.342 67.6 13.3 69 11.2
2010-04-12 09:13:51 51°21.278 3°4.369 67.6 13.2 66 10.9
2010-04-12 09:13:57 51°21.287 3°4.401 67.1 13.3 68 11.1
2010-04-12 09:14:02 51°21.294 3°4.428 67.6 13.3 67 11.2
2010-04-12 09:14:06 51°21.3 3°4.45 67.1 13.3 69 11.5
2010-04-12 09:14:11 51°21.307 3°4.478 67.4 13.2 66 11
2010-04-12 09:14:16 51°21.314 3°4.505 67.5 13.3 68 11.1
2010-04-12 09:14:21 51°21.321 3°4.532 67.2 13.3 67 11.4
2010-04-12 09:14:27 51°21.329 3°4.564 67.4 13.2 69 10.6
2010-04-12 09:14:31 51°21.335 3°4.586 67.7 13.3 66 11
2010-04-12 09:14:36 51°21.342 3°4.613 66.9 13.3 68 11.4
2010-04-12 09:14:42 51°21.351 3°4.646 67.4 13.2 67 11.1
2010-04-12 09:14:47 51°21.358 3°4.673 67.8 13.3 67 11.1
2010-04-12 09:14:51 51°21.363 3°4.695 67.2 13.3 67 11.1
2010-04-12 09:14:56 51°21.371 3°4.722 67.6 13.3 70 11.3
2010-04-12 09:15:01 51°21.376 3°4.751 69.3 13.4 69 11.1
2010-04-12 09:15:07 51°21.384 3°4.784 69.3 13.4 69 11.3
2010-04-12 09:15:11 51°21.389 3°4.806 69.9 13.5 73 11.3
2010-04-12 09:15:16 51°21.394 3°4.835 70.7 13.4 69 10.8
2010-04-12 09:15:21 51°21.401 3°4.863 69.7 13.3 73 11
2010-04-12 09:15:26 51°21.406 3°4.891 71.5 13.2 71 11
2010-04-12 09:15:31 51°21.412 3°4.919 71.9 13.4 73 11.5
2010-04-12 09:15:36 51°21.418 3°4.947 71.2 13.3 71 11.1
2010-04-12 09:15:41 51°21.424 3°4.975 71.6 13.4 72 10.9
2010-04-12 09:15:46 51°21.43 3°5.003 71.6 13.3 73 11.2
2010-04-12 09:15:51 51°21.435 3°5.031 71.9 13.4 72 11.3
2010-04-12 09:15:56 51°21.441 3°5.059 71.7 13.3 71 10.6
2010-04-12 09:16:02 51°21.449 3°5.093 71.7 13.4 71 10.9
2010-04-12 09:16:06 51°21.453 3°5.115 71.2 13.5 72 11.2
2010-04-12 09:16:11 51°21.459 3°5.144 71.3 13.5 72 11
2010-04-12 09:16:17 51°21.466 3°5.178 71.3 13.5 70 11.1
2010-04-12 09:16:22 51°21.472 3°5.206 70.8 13.4 73 11.3
2010-04-12 09:16:27 51°21.478 3°5.234 71.7 13.5 70 10.8
2010-04-12 09:16:31 51°21.483 3°5.257 71.2 13.5 72 11.2
2010-04-12 09:16:37 51°21.489 3°5.291 71.4 13.5 72 11.1
2010-04-12 09:16:42 51°21.496 3°5.319 71.6 13.5 71 11.2
2010-04-12 09:16:46 51°21.5 3°5.342 71.2 13.6 72 11.4
2010-04-12 09:16:51 51°21.507 3°5.37 70.8 13.5 71 10.9
2010-04-12 09:16:56 51°21.512 3°5.399 71.4 13.5 72 10.9
2010-04-12 09:17:01 51°21.518 3°5.427 71.5 13.6 74 11.4
2010-04-12 09:17:07 51°21.525 3°5.462 71.9 13.5 70 11.1
2010-04-12 09:17:11 51°21.529 3°5.485 71.9 13.3 73 10.7
2010-04-12 09:17:16 51°21.535 3°5.513 71.4 13.4 72 11.1
2010-04-12 09:17:21 51°21.541 3°5.541 71.9 13.4 71 11.2
2010-04-12 09:17:26 51°21.547 3°5.569 71.2 13.4 71 10.8
2010-04-12 09:17:31 51°21.553 3°5.597 71.2 13.4 71 10.9
2010-04-12 09:17:36 51°21.559 3°5.625 71.1 13.5 73 11.3
2010-04-12 09:17:41 51°21.565 3°5.654 71.9 13.4 71 10.9
2010-04-12 09:17:46 51°21.571 3°5.682 71.8 13.5 73 11.4
2010-04-12 09:17:51 51°21.577 3°5.71 71.6 13.5 70 11.4
2010-04-12 09:17:56 51°21.582 3°5.739 71.2 13.5 73 11.4
2010-04-12 09:18:01 51°21.589 3°5.767 70.9 13.5 72 11.5
2010-04-12 09:18:06 51°21.594 3°5.796 72 13.6 72 11.3
2010-04-12 09:18:11 51°21.601 3°5.824 71.1 13.5 70 11.5
2010-04-12 09:18:17 51°21.607 3°5.858 71.4 13.5 72 11.6
2010-04-12 09:18:21 51°21.613 3°5.88 71.1 13.5 71 11.4
2010-04-12 09:18:26 51°21.618 3°5.91 72.1 13.6 72 11.2
2010-04-12 09:18:31 51°21.624 3°5.938 71.9 13.5 71 11.5
2010-04-12 09:18:37 51°21.63 3°5.972 71.7 13.5 73 11.6
2010-04-12 09:18:42 51°21.637 3°6 71.9 13.5 70 11.4
2010-04-12 09:18:46 51°21.641 3°6.023 71.8 13.5 72 11.5
2010-04-12 09:18:51 51°21.648 3°6.051 71.4 13.5 71 11.6
2010-04-12 09:18:56 51°21.653 3°6.08 71.6 13.6 71 11.6
2010-04-12 09:19:02 51°21.661 3°6.114 70.9 13.5 70 11.3
2010-04-12 09:19:07 51°21.666 3°6.143 71.6 13.5 73 11.5
2010-04-12 09:19:11 51°21.672 3°6.165 71.1 13.5 69 11.1
2010-04-12 09:19:17 51°21.678 3°6.199 71 13.5 73 11.3